createdAt,value
2023-02-25T00:00:56.544Z,14.45
2023-02-25T00:02:19.982Z,13.77
2023-02-25T00:03:42.678Z,9.93
2023-02-25T00:05:07.195Z,10.85
2023-02-25T00:06:30.810Z,6.28
2023-02-25T00:07:53.561Z,13.00
2023-02-25T00:09:16.965Z,13.23
2023-02-25T00:10:39.384Z,11.63
2023-02-25T00:12:06.028Z,9.38
2023-02-25T00:13:28.886Z,10.38
2023-02-25T00:14:52.424Z,13.02
2023-02-25T00:16:15.961Z,8.10
2023-02-25T00:17:42.103Z,9.75
2023-02-25T00:19:04.518Z,7.97
2023-02-25T00:20:28.107Z,8.77
2023-02-25T00:21:51.616Z,6.40
2023-02-25T00:23:15.016Z,3.65
2023-02-25T00:24:38.450Z,15.65
2023-02-25T00:26:01.737Z,11.43
2023-02-25T00:27:26.610Z,13.40
2023-02-25T00:28:49.401Z,8.75
2023-02-25T00:30:13.789Z,11.18
2023-02-25T00:31:36.605Z,10.82
2023-02-25T00:33:00.118Z,9.32
2023-02-25T00:34:24.313Z,10.23
2023-02-25T00:35:46.799Z,10.95
2023-02-25T00:37:10.201Z,6.70
2023-02-25T00:38:32.673Z,3.75
2023-02-25T00:39:56.189Z,5.47
2023-02-25T00:41:21.299Z,5.53
2023-02-25T00:42:46.237Z,5.13
2023-02-25T00:44:09.697Z,1.58
2023-02-25T00:45:33.505Z,1.88
2023-02-25T00:46:56.890Z,3.15
2023-02-25T00:48:19.268Z,1.85
2023-02-25T00:49:42.953Z,4.82
2023-02-25T00:51:07.165Z,3.88
2023-02-25T00:52:30.644Z,2.92
2023-02-25T00:53:55.783Z,1.25
2023-02-25T00:55:19.649Z,3.38
2023-02-25T00:56:42.051Z,3.33
2023-02-25T00:58:06.766Z,1.50
2023-02-25T00:59:30.178Z,5.03
2023-02-25T01:00:52.672Z,1.50
2023-02-25T01:02:16.222Z,1.23
2023-02-25T01:03:38.624Z,3.63
2023-02-25T01:05:02.201Z,2.72
2023-02-25T01:06:26.606Z,1.25
2023-02-25T01:07:50.180Z,2.85
2023-02-25T01:09:14.886Z,1.17
2023-02-25T01:10:37.266Z,3.88
2023-02-25T01:12:00.667Z,1.17
2023-02-25T01:13:24.674Z,4.82
2023-02-25T01:14:48.066Z,3.55
2023-02-25T01:16:14.416Z,3.92
2023-02-25T01:17:37.958Z,3.28
2023-02-25T01:19:06.455Z,2.92
2023-02-25T01:20:30.337Z,3.80
2023-02-25T01:21:54.153Z,3.45
2023-02-25T01:23:17.557Z,2.28
2023-02-25T01:24:42.170Z,6.97
2023-02-25T01:26:05.380Z,2.42
2023-02-25T01:27:28.782Z,1.63
2023-02-25T01:28:53.571Z,3.05
2023-02-25T01:30:17.009Z,3.85
2023-02-25T01:31:40.744Z,2.53
2023-02-25T01:33:04.220Z,2.72
2023-02-25T01:34:28.736Z,4.38
2023-02-25T01:35:51.130Z,3.58
2023-02-25T01:37:15.613Z,6.45
2023-02-25T01:38:38.007Z,1.90
2023-02-25T01:40:01.443Z,3.10
2023-02-25T01:41:24.092Z,5.78
2023-02-25T01:42:48.387Z,3.08
2023-02-25T01:44:14.757Z,4.15
2023-02-25T01:45:40.004Z,3.75
2023-02-25T01:47:04.364Z,5.85
2023-02-25T01:48:30.540Z,7.70
2023-02-25T01:49:53.028Z,1.58
2023-02-25T01:51:16.400Z,9.40
2023-02-25T01:52:41.184Z,2.30
2023-02-25T01:54:06.168Z,3.50
2023-02-25T01:55:28.658Z,5.45
2023-02-25T01:56:53.835Z,3.85
2023-02-25T01:58:16.979Z,4.28
2023-02-25T01:59:42.968Z,7.47
2023-02-25T02:01:08.308Z,2.65
2023-02-25T02:02:34.075Z,4.15
2023-02-25T02:03:56.859Z,3.25
2023-02-25T02:05:20.417Z,4.65
2023-02-25T02:06:45.908Z,4.55
2023-02-25T02:08:09.247Z,5.32
2023-02-25T02:09:33.268Z,3.78
2023-02-25T02:10:56.440Z,10.02
2023-02-25T02:12:19.852Z,2.78
2023-02-25T02:13:43.982Z,5.82
2023-02-25T02:15:12.371Z,1.35
2023-02-25T02:17:09.637Z,3.97
2023-02-25T02:18:35.532Z,2.70
2023-02-25T02:20:11.414Z,0.90
2023-02-25T02:21:47.519Z,0.95
2023-02-25T02:23:38.035Z,3.92
2023-02-25T02:25:32.612Z,1.85
2023-02-25T02:27:04.729Z,0.63
2023-02-25T02:28:57.540Z,2.40
2023-02-25T02:30:35.704Z,1.95
2023-02-25T02:32:07.033Z,3.85
2023-02-25T02:33:40.311Z,2.13
2023-02-25T02:35:10.407Z,1.05
2023-02-25T02:36:52.702Z,1.80
2023-02-25T02:38:21.345Z,1.30
2023-02-25T02:39:51.699Z,2.05
2023-02-25T02:41:20.586Z,2.25
2023-02-25T02:42:51.684Z,3.17
2023-02-25T02:44:19.202Z,0.70
2023-02-25T02:45:46.855Z,2.88
2023-02-25T02:47:15.821Z,2.25
2023-02-25T02:48:41.639Z,3.10
2023-02-25T02:50:09.369Z,1.65
2023-02-25T02:51:36.776Z,3.78
2023-02-25T02:53:03.042Z,3.05
2023-02-25T02:54:27.026Z,2.42
2023-02-25T02:55:50.912Z,0.60
2023-02-25T02:57:16.484Z,2.83
2023-02-25T02:58:42.964Z,2.97
2023-02-25T03:00:17.248Z,3.15
2023-02-25T03:01:44.649Z,0.98
2023-02-25T03:03:12.116Z,1.40
2023-02-25T03:04:38.521Z,0.80
2023-02-25T03:06:00.912Z,1.30
2023-02-25T03:07:24.953Z,1.98
2023-02-25T03:08:49.534Z,1.27
2023-02-25T03:10:17.145Z,2.22
2023-02-25T03:11:40.580Z,0.63
2023-02-25T03:13:03.060Z,0.95
2023-02-25T03:14:26.669Z,0.68
2023-02-25T03:15:49.925Z,1.00
2023-02-25T03:17:15.399Z,0.52
2023-02-25T03:18:42.550Z,1.00
2023-02-25T03:20:12.672Z,2.78
2023-02-25T03:21:39.118Z,1.27
2023-02-25T03:23:05.934Z,0.50
2023-02-25T03:24:36.635Z,1.25
2023-02-25T03:26:06.365Z,2.75
2023-02-25T03:27:34.228Z,1.48
2023-02-25T03:28:57.251Z,0.45
2023-02-25T03:30:27.683Z,0.50
2023-02-25T03:31:57.213Z,0.82
2023-02-25T03:33:25.627Z,0.60
2023-02-25T03:34:51.257Z,0.77
2023-02-25T03:36:17.820Z,0.60
2023-02-25T03:37:43.203Z,1.13
2023-02-25T03:39:09.922Z,2.90
2023-02-25T03:40:33.682Z,0.60
2023-02-25T03:41:59.677Z,1.10
2023-02-25T03:43:26.135Z,1.83
2023-02-25T03:44:50.843Z,0.65
2023-02-25T03:46:14.592Z,1.88
2023-02-25T03:47:39.169Z,1.10
2023-02-25T03:49:04.214Z,0.30
2023-02-25T03:50:30.380Z,0.65
2023-02-25T03:51:55.417Z,2.05
2023-02-25T03:53:17.841Z,0.63
2023-02-25T03:54:41.300Z,1.33
2023-02-25T03:56:09.083Z,1.65
2023-02-25T03:57:37.790Z,0.93
2023-02-25T03:59:01.186Z,0.43
2023-02-25T04:00:25.805Z,0.50
2023-02-25T04:01:51.012Z,0.60
2023-02-25T04:03:13.453Z,0.30
2023-02-25T04:04:36.854Z,0.50
2023-02-25T04:06:00.642Z,0.90
2023-02-25T04:07:27.127Z,0.93
2023-02-25T04:08:50.696Z,1.63
2023-02-25T04:10:14.809Z,0.30
2023-02-25T04:11:38.203Z,0.40
2023-02-25T04:13:00.716Z,1.95
2023-02-25T04:14:24.107Z,0.20
2023-02-25T04:15:47.222Z,0.65
2023-02-25T04:17:11.688Z,0.85
2023-02-25T04:18:34.091Z,0.52
2023-02-25T04:19:57.437Z,1.98
2023-02-25T04:21:29.946Z,0.30
2023-02-25T04:22:53.364Z,0.50
2023-02-25T04:24:16.767Z,0.40
2023-02-25T04:25:39.279Z,0.45
2023-02-25T04:27:03.886Z,0.63
2023-02-25T04:28:26.311Z,0.65
2023-02-25T04:29:49.702Z,0.30
2023-02-25T04:31:12.765Z,2.85
2023-02-25T04:32:36.477Z,3.50
2023-02-25T04:33:58.902Z,0.40
2023-02-25T04:35:22.279Z,4.07
2023-02-25T04:36:46.891Z,1.95
2023-02-25T04:38:10.802Z,2.13
2023-02-25T04:39:34.717Z,0.47
2023-02-25T04:40:58.087Z,0.38
2023-02-25T04:42:21.590Z,0.65
2023-02-25T04:43:46.940Z,0.40
2023-02-25T04:45:11.963Z,0.30
2023-02-25T04:46:36.633Z,0.77
2023-02-25T04:48:00.053Z,0.60
2023-02-25T04:49:23.274Z,0.30
2023-02-25T04:50:46.655Z,1.73
2023-02-25T04:52:11.536Z,0.52
2023-02-25T04:53:34.157Z,2.28
2023-02-25T04:54:57.610Z,0.70
2023-02-25T04:56:21.473Z,0.75
2023-02-25T04:57:45.182Z,0.30
2023-02-25T04:59:07.631Z,0.73
2023-02-25T05:00:31.026Z,0.55
2023-02-25T05:01:53.449Z,0.47
2023-02-25T05:03:17.067Z,0.75
2023-02-25T05:04:41.658Z,0.40
2023-02-25T05:06:05.613Z,0.80
2023-02-25T05:07:29.352Z,0.40
2023-02-25T05:08:52.748Z,0.90
2023-02-25T05:10:15.813Z,0.40
2023-02-25T05:11:39.274Z,0.52
2023-02-25T05:13:01.953Z,0.85
2023-02-25T05:14:25.325Z,1.35
2023-02-25T05:15:48.036Z,0.57
2023-02-25T05:17:13.414Z,0.82
2023-02-25T05:18:40.809Z,0.30
2023-02-25T05:20:07.930Z,0.40
2023-02-25T05:21:30.336Z,0.65
2023-02-25T05:22:55.039Z,0.88
2023-02-25T05:24:17.671Z,0.20
2023-02-25T05:25:42.173Z,0.40
2023-02-25T05:27:04.751Z,0.85
2023-02-25T05:28:28.424Z,0.20
2023-02-25T05:29:52.534Z,0.13
2023-02-25T05:31:16.060Z,1.08
2023-02-25T05:32:38.983Z,0.82
2023-02-25T05:34:03.368Z,1.77
2023-02-25T05:35:26.996Z,0.32
2023-02-25T05:36:50.397Z,0.50
2023-02-25T05:38:14.160Z,0.40
2023-02-25T05:39:37.575Z,0.50
2023-02-25T05:41:01.595Z,0.68
2023-02-25T05:42:24.991Z,1.15
2023-02-25T05:43:49.023Z,0.55
2023-02-25T05:45:13.610Z,0.40
2023-02-25T05:46:36.180Z,0.52
2023-02-25T05:47:59.557Z,0.90
2023-02-25T05:49:22.976Z,0.75
2023-02-25T05:50:47.812Z,0.30
2023-02-25T05:52:11.676Z,0.50
2023-02-25T05:53:35.513Z,4.40
2023-02-25T05:54:58.890Z,1.90
2023-02-25T05:56:25.534Z,1.55
2023-02-25T05:57:48.207Z,0.70
2023-02-25T05:59:12.438Z,2.00
2023-02-25T06:00:35.947Z,1.65
2023-02-25T06:01:59.385Z,1.75
2023-02-25T06:03:22.858Z,0.60
2023-02-25T06:04:47.928Z,3.40
2023-02-25T06:06:12.972Z,1.05
2023-02-25T06:07:36.469Z,1.10
2023-02-25T06:09:01.559Z,0.82
2023-02-25T06:10:24.022Z,1.08
2023-02-25T06:11:48.900Z,0.57
2023-02-25T06:13:12.761Z,0.52
2023-02-25T06:14:36.274Z,0.57
2023-02-25T06:15:59.864Z,0.57
2023-02-25T06:17:24.635Z,0.68
2023-02-25T06:18:47.833Z,1.00
2023-02-25T06:20:12.308Z,1.45
2023-02-25T06:21:36.040Z,0.68
2023-02-25T06:22:58.431Z,1.30
2023-02-25T06:24:23.487Z,1.38
2023-02-25T06:25:45.858Z,0.47
2023-02-25T06:27:09.232Z,0.95
2023-02-25T06:28:31.648Z,0.63
2023-02-25T06:29:55.203Z,1.20
2023-02-25T06:31:20.537Z,2.40
2023-02-25T06:32:43.038Z,1.02
2023-02-25T06:34:06.868Z,1.23
2023-02-25T06:35:30.086Z,1.17
2023-02-25T06:36:53.431Z,0.50
2023-02-25T06:38:15.787Z,0.80
2023-02-25T06:39:43.098Z,0.82
2023-02-25T06:41:08.971Z,0.50
2023-02-25T06:42:32.372Z,0.32
2023-02-25T06:43:55.737Z,1.80
2023-02-25T06:45:18.320Z,1.75
2023-02-25T06:46:41.671Z,0.77
2023-02-25T06:48:05.216Z,1.80
2023-02-25T06:49:32.665Z,1.80
2023-02-25T06:50:56.021Z,1.63
2023-02-25T06:52:20.382Z,0.60
2023-02-25T06:53:44.561Z,0.45
2023-02-25T06:55:10.713Z,1.83
2023-02-25T06:56:33.109Z,0.50
2023-02-25T06:57:58.088Z,0.82
2023-02-25T06:59:21.631Z,0.90
2023-02-25T07:00:45.077Z,0.85
2023-02-25T07:02:10.192Z,1.15
2023-02-25T07:03:33.769Z,0.82
2023-02-25T07:04:57.381Z,0.50
2023-02-25T07:06:21.800Z,0.32
2023-02-25T07:07:45.340Z,1.38
2023-02-25T07:09:16.087Z,0.55
2023-02-25T07:10:40.527Z,0.90
2023-02-25T07:12:03.971Z,1.02
2023-02-25T07:13:26.347Z,0.30
2023-02-25T07:14:50.035Z,0.82
2023-02-25T07:16:12.880Z,0.55
2023-02-25T07:17:37.512Z,0.95
2023-02-25T07:19:02.157Z,2.85
2023-02-25T07:20:25.586Z,0.35
2023-02-25T07:21:49.718Z,1.02
2023-02-25T07:23:13.100Z,0.70
2023-02-25T07:24:36.524Z,1.02
2023-02-25T07:26:04.072Z,0.32
2023-02-25T07:27:27.410Z,0.57
2023-02-25T07:28:50.863Z,0.40
2023-02-25T07:30:15.212Z,1.42
2023-02-25T07:31:38.878Z,3.55
2023-02-25T07:33:03.045Z,1.05
2023-02-25T07:34:25.548Z,0.43
2023-02-25T07:35:48.914Z,1.05
2023-02-25T07:37:13.668Z,1.52
2023-02-25T07:38:37.344Z,1.02
2023-02-25T07:40:00.688Z,1.00
2023-02-25T07:41:25.894Z,1.02
2023-02-25T07:42:48.299Z,0.38
2023-02-25T07:44:11.698Z,0.40
2023-02-25T07:45:35.093Z,0.52
2023-02-25T07:46:58.470Z,1.15
2023-02-25T07:48:21.833Z,1.67
2023-02-25T07:49:45.202Z,1.08
2023-02-25T07:51:09.915Z,0.60
2023-02-25T07:52:33.480Z,0.50
2023-02-25T07:53:57.666Z,1.00
2023-02-25T07:55:21.007Z,0.55
2023-02-25T07:56:45.539Z,1.20
2023-02-25T07:58:08.982Z,2.20
2023-02-25T07:59:34.849Z,1.30
2023-02-25T08:00:58.242Z,0.40
2023-02-25T08:02:21.874Z,0.63
2023-02-25T08:03:45.476Z,1.48
2023-02-25T08:05:10.990Z,4.05
2023-02-25T08:06:37.586Z,0.80
2023-02-25T08:08:01.006Z,0.55
2023-02-25T08:09:24.459Z,1.05
2023-02-25T08:10:47.947Z,0.73
2023-02-25T08:12:12.704Z,1.40
2023-02-25T08:13:36.441Z,0.60
2023-02-25T08:15:02.042Z,0.63
2023-02-25T08:16:25.546Z,0.70
2023-02-25T08:17:51.740Z,4.85
2023-02-25T08:19:15.101Z,2.55
2023-02-25T08:20:38.541Z,1.05
2023-02-25T08:22:01.975Z,0.90
2023-02-25T08:23:24.417Z,0.70
2023-02-25T08:24:47.771Z,0.70
2023-02-25T08:26:10.390Z,0.65
2023-02-25T08:27:36.409Z,0.60
2023-02-25T08:28:59.928Z,1.08
2023-02-25T08:30:23.458Z,4.40
2023-02-25T08:31:48.941Z,0.32
2023-02-25T08:33:12.508Z,0.40
2023-02-25T08:34:36.147Z,0.63
2023-02-25T08:36:09.552Z,1.77
2023-02-25T08:37:33.303Z,1.48
2023-02-25T08:38:59.210Z,0.65
2023-02-25T08:40:23.315Z,0.80
2023-02-25T08:41:46.757Z,1.08
2023-02-25T08:43:10.957Z,0.50
2023-02-25T08:44:34.387Z,3.15
2023-02-25T08:45:57.747Z,1.08
2023-02-25T08:47:21.096Z,0.30
2023-02-25T08:48:44.581Z,0.75
2023-02-25T08:50:09.839Z,1.83
2023-02-25T08:51:35.015Z,0.88
2023-02-25T08:52:58.746Z,0.32
2023-02-25T08:54:22.354Z,1.23
2023-02-25T08:55:47.241Z,0.60
2023-02-25T08:57:10.648Z,0.28
2023-02-25T08:58:34.444Z,0.50
2023-02-25T08:59:57.830Z,1.60
2023-02-25T09:01:22.312Z,1.00
2023-02-25T09:02:46.257Z,1.02
2023-02-25T09:04:09.640Z,0.88
2023-02-25T09:05:33.025Z,0.50
2023-02-25T09:06:59.234Z,0.45
2023-02-25T09:08:22.888Z,0.47
2023-02-25T09:09:46.385Z,0.25
2023-02-25T09:11:08.804Z,0.30
2023-02-25T09:12:33.929Z,0.60
2023-02-25T09:13:58.727Z,0.40
2023-02-25T09:15:22.633Z,0.40
2023-02-25T09:16:46.147Z,0.73
2023-02-25T09:18:09.672Z,1.67
2023-02-25T09:19:33.431Z,0.25
2023-02-25T09:20:56.795Z,0.55
2023-02-25T09:22:20.643Z,0.32
2023-02-25T09:23:44.567Z,0.50
2023-02-25T09:25:08.360Z,2.10
2023-02-25T09:26:31.690Z,0.40
2023-02-25T09:27:55.056Z,2.17
2023-02-25T09:29:19.996Z,0.80
2023-02-25T09:30:46.447Z,1.40
2023-02-25T09:32:19.789Z,0.75
2023-02-25T09:33:43.734Z,1.85
2023-02-25T09:35:08.792Z,0.95
2023-02-25T09:36:32.315Z,0.28
2023-02-25T09:37:55.670Z,0.20
2023-02-25T09:39:19.145Z,0.40
2023-02-25T09:40:45.770Z,0.50
2023-02-25T09:42:10.911Z,1.13
2023-02-25T09:43:39.452Z,0.22
2023-02-25T09:45:05.503Z,0.88
2023-02-25T09:46:31.400Z,1.30
2023-02-25T09:47:57.351Z,0.55
2023-02-25T09:49:26.917Z,0.25
2023-02-25T09:50:52.979Z,0.20
2023-02-25T09:52:19.486Z,0.80
2023-02-25T09:53:47.704Z,0.40
2023-02-25T09:55:19.201Z,1.08
2023-02-25T09:56:41.580Z,0.13
2023-02-25T09:58:09.852Z,0.28
2023-02-25T09:59:34.411Z,3.85
2023-02-25T10:01:04.482Z,0.20
2023-02-25T10:02:33.981Z,0.77
2023-02-25T10:04:02.680Z,0.28
2023-02-25T10:05:30.190Z,0.52
2023-02-25T10:06:56.038Z,0.77
2023-02-25T10:08:23.455Z,1.55
2023-02-25T10:09:53.995Z,1.38
2023-02-25T10:11:22.760Z,0.82
2023-02-25T10:12:54.173Z,1.75
2023-02-25T10:14:26.134Z,2.78
2023-02-25T10:15:56.789Z,0.20
2023-02-25T10:17:28.142Z,0.10
2023-02-25T10:19:00.032Z,0.00
2023-02-25T10:20:44.725Z,0.10
2023-02-25T10:22:26.183Z,0.10
2023-02-25T10:24:01.704Z,0.20
2023-02-25T10:25:28.529Z,0.32
2023-02-25T10:26:54.798Z,0.50
2023-02-25T10:28:20.195Z,0.20
2023-02-25T10:29:49.146Z,0.30
2023-02-25T10:31:16.856Z,0.38
2023-02-25T10:32:43.965Z,5.07
2023-02-25T10:34:21.204Z,0.00
2023-02-25T10:35:44.621Z,0.28
2023-02-25T10:37:14.459Z,0.05
2023-02-25T10:38:41.936Z,0.80
2023-02-25T10:40:12.719Z,0.20
2023-02-25T10:41:37.399Z,0.30
2023-02-25T10:43:02.872Z,1.20
2023-02-25T10:44:26.308Z,0.45
2023-02-25T10:45:52.635Z,0.82
2023-02-25T10:47:22.163Z,0.63
2023-02-25T10:48:52.149Z,0.50
2023-02-25T10:50:18.827Z,0.35
2023-02-25T10:51:58.979Z,0.52
2023-02-25T10:53:24.255Z,0.70
2023-02-25T10:54:49.937Z,0.95
2023-02-25T10:56:13.373Z,0.80
2023-02-25T10:57:42.798Z,0.68
2023-02-25T10:59:08.292Z,0.93
2023-02-25T11:00:33.853Z,0.47
2023-02-25T11:01:57.580Z,0.90
2023-02-25T11:03:24.524Z,0.57
2023-02-25T11:04:50.191Z,1.02
2023-02-25T11:06:22.731Z,0.57
2023-02-25T11:07:47.598Z,1.17
2023-02-25T11:09:30.129Z,0.93
2023-02-25T11:11:02.379Z,0.98
2023-02-25T11:12:25.779Z,0.40
2023-02-25T11:14:03.178Z,0.60
2023-02-25T11:15:44.257Z,0.60
2023-02-25T11:17:14.438Z,0.82
2023-02-25T11:18:38.336Z,4.10
2023-02-25T11:20:06.585Z,4.72
2023-02-25T11:21:34.687Z,3.95
2023-02-25T11:22:59.076Z,0.98
2023-02-25T11:24:31.580Z,3.28
2023-02-25T11:25:54.962Z,2.30
2023-02-25T11:27:27.372Z,1.00
2023-02-25T11:28:51.318Z,1.65
2023-02-25T11:30:20.632Z,0.70
2023-02-25T11:31:44.869Z,0.50
2023-02-25T11:33:19.212Z,1.42
2023-02-25T11:34:50.420Z,1.20
2023-02-25T11:36:20.682Z,0.88
2023-02-25T11:37:47.425Z,0.57
2023-02-25T11:39:19.565Z,0.10
2023-02-25T11:40:44.286Z,0.95
2023-02-25T11:42:24.225Z,0.32
2023-02-25T11:43:47.911Z,0.40
2023-02-25T11:45:19.708Z,0.63
2023-02-25T11:46:46.795Z,0.38
2023-02-25T11:48:19.560Z,1.50
2023-02-25T11:50:07.989Z,0.63
2023-02-25T11:51:37.829Z,0.28
2023-02-25T11:53:08.153Z,0.65
2023-02-25T11:54:36.014Z,1.00
2023-02-25T11:56:06.025Z,0.75
2023-02-25T11:57:40.569Z,0.30
2023-02-25T11:59:14.991Z,0.15
2023-02-25T12:00:44.948Z,0.32
2023-02-25T12:02:28.964Z,0.30
2023-02-25T12:04:21.393Z,0.82
2023-02-25T12:05:53.921Z,0.98
2023-02-25T12:07:51.420Z,0.52
2023-02-25T12:10:08.162Z,0.20
2023-02-25T12:12:02.056Z,0.68
2023-02-25T12:13:46.822Z,0.63
2023-02-25T12:15:25.879Z,0.30
2023-02-25T12:17:09.689Z,0.40
2023-02-25T12:19:11.457Z,0.47
2023-02-25T12:21:14.400Z,3.65
2023-02-25T12:23:06.548Z,0.20
2023-02-25T12:24:37.763Z,0.15
2023-02-25T12:26:07.476Z,1.30
2023-02-25T12:27:58.357Z,0.45
2023-02-25T12:29:46.497Z,0.30
2023-02-25T12:31:54.782Z,1.60
2023-02-25T12:33:50.005Z,1.80
2023-02-25T12:35:36.457Z,2.40
2023-02-25T12:37:17.445Z,2.15
2023-02-25T12:39:08.409Z,1.55
2023-02-25T12:40:42.463Z,2.78
2023-02-25T12:42:14.775Z,0.95
2023-02-25T12:43:49.009Z,0.35
2023-02-25T12:45:53.764Z,3.15
2023-02-25T12:47:26.804Z,6.50
2023-02-25T12:49:24.755Z,0.25
2023-02-25T12:51:06.880Z,0.68
2023-02-25T12:52:43.823Z,0.28
2023-02-25T12:54:21.224Z,0.30
2023-02-25T12:56:00.649Z,2.22
2023-02-25T12:57:41.213Z,0.80
2023-02-25T12:59:21.603Z,1.20
2023-02-25T13:00:58.600Z,1.33
2023-02-25T13:02:36.995Z,0.40
2023-02-25T13:04:28.283Z,2.05
2023-02-25T13:06:10.931Z,3.55
2023-02-25T13:08:05.253Z,1.02
2023-02-25T13:09:51.651Z,2.42
2023-02-25T13:11:24.798Z,1.75
2023-02-25T13:12:58.899Z,3.70
2023-02-25T13:14:38.373Z,1.08
2023-02-25T13:16:12.573Z,3.10
2023-02-25T13:18:17.555Z,1.55
2023-02-25T13:20:18.763Z,1.08
2023-02-25T13:21:53.505Z,1.95
2023-02-25T13:23:38.977Z,1.05
2023-02-25T13:25:15.200Z,1.20
2023-02-25T13:26:50.044Z,0.57
2023-02-25T13:28:35.141Z,2.45
2023-02-25T13:30:19.079Z,3.65
2023-02-25T13:31:49.693Z,0.30
2023-02-25T13:33:22.949Z,0.57
2023-02-25T13:34:50.681Z,0.93
2023-02-25T13:36:30.477Z,0.43
2023-02-25T13:38:02.000Z,1.45
2023-02-25T13:39:47.559Z,1.42
2023-02-25T13:41:37.757Z,0.45
2023-02-25T13:43:09.098Z,0.40
2023-02-25T13:44:47.583Z,0.90
2023-02-25T13:46:29.489Z,1.15
2023-02-25T13:48:15.384Z,0.40
2023-02-25T13:50:07.590Z,0.80
2023-02-25T13:51:49.508Z,4.05
2023-02-25T13:53:38.947Z,3.28
2023-02-25T13:55:30.151Z,2.00
2023-02-25T13:56:58.509Z,2.53
2023-02-25T13:58:45.953Z,2.45
2023-02-25T14:00:34.544Z,0.43
2023-02-25T14:02:04.551Z,0.90
2023-02-25T14:03:49.260Z,0.63
2023-02-25T14:05:39.059Z,0.30
2023-02-25T14:07:32.273Z,0.60
2023-02-25T14:09:06.731Z,0.90
2023-02-25T14:10:42.949Z,0.95
2023-02-25T14:12:16.164Z,0.40
2023-02-25T14:13:52.574Z,0.57
2023-02-25T14:15:40.640Z,0.22
2023-02-25T14:17:18.645Z,0.32
2023-02-25T14:18:52.864Z,1.02
2023-02-25T14:20:24.033Z,1.23
2023-02-25T14:22:16.289Z,0.60
2023-02-25T14:23:47.038Z,1.08
2023-02-25T14:25:22.009Z,5.65
2023-02-25T14:26:53.487Z,1.08
2023-02-25T14:28:24.466Z,1.08
2023-02-25T14:30:00.573Z,2.72
2023-02-25T14:31:28.836Z,0.40
2023-02-25T14:33:05.866Z,2.95
2023-02-25T14:34:36.657Z,0.30
2023-02-25T14:36:26.629Z,0.60
2023-02-25T14:37:56.449Z,0.40
2023-02-25T14:39:27.616Z,0.65
2023-02-25T14:40:58.324Z,1.90
2023-02-25T14:42:36.877Z,1.40
2023-02-25T14:44:04.769Z,0.95
2023-02-25T14:45:31.854Z,1.55
2023-02-25T14:47:00.223Z,2.33
2023-02-25T14:48:28.268Z,2.28
2023-02-25T14:49:58.471Z,0.47
2023-02-25T14:51:44.562Z,1.83
2023-02-25T14:53:44.382Z,0.88
2023-02-25T14:55:43.053Z,1.05
2023-02-25T14:57:31.112Z,2.58
2023-02-25T14:59:29.041Z,0.40
2023-02-25T15:01:04.284Z,1.27
2023-02-25T15:02:41.884Z,1.42
2023-02-25T15:04:25.122Z,0.43
2023-02-25T15:06:04.065Z,3.00
2023-02-25T15:07:49.558Z,0.63
2023-02-25T15:09:24.935Z,1.42
2023-02-25T15:11:04.061Z,0.13
2023-02-25T15:12:38.827Z,1.90
2023-02-25T15:14:22.473Z,0.63
2023-02-25T15:16:18.441Z,0.28
2023-02-25T15:18:10.121Z,0.25
2023-02-25T15:20:00.886Z,2.40
2023-02-25T15:21:38.740Z,0.15
2023-02-25T15:23:10.325Z,0.30
2023-02-25T15:24:41.660Z,0.32
2023-02-25T15:26:22.871Z,0.45
2023-02-25T15:27:50.663Z,0.98
2023-02-25T15:29:22.492Z,2.47
2023-02-25T15:31:10.004Z,0.93
2023-02-25T15:33:07.718Z,0.45
2023-02-25T15:34:38.260Z,1.20
2023-02-25T15:36:02.436Z,0.35
2023-02-25T15:37:35.522Z,1.98
2023-02-25T15:39:00.152Z,1.17
2023-02-25T15:40:55.374Z,0.52
2023-02-25T15:42:48.497Z,0.63
2023-02-25T15:44:38.283Z,1.15
2023-02-25T15:46:27.487Z,1.27
2023-02-25T15:47:51.238Z,0.10
2023-02-25T15:49:23.608Z,1.05
2023-02-25T15:50:54.168Z,0.20
2023-02-25T15:52:52.463Z,0.50
2023-02-25T15:54:51.671Z,1.27
2023-02-25T15:56:52.299Z,0.40
2023-02-25T15:58:52.203Z,0.98
2023-02-25T16:00:51.968Z,1.63
2023-02-25T16:02:47.817Z,1.42
2023-02-25T16:04:44.124Z,2.55
2023-02-25T16:06:12.408Z,2.72
2023-02-25T16:07:38.486Z,0.60
2023-02-25T16:09:08.145Z,2.28
2023-02-25T16:10:36.375Z,3.55
2023-02-25T16:12:05.064Z,2.45
2023-02-25T16:13:30.369Z,1.00
2023-02-25T16:14:56.022Z,0.35
2023-02-25T16:16:20.155Z,0.80
2023-02-25T16:17:45.335Z,1.08
2023-02-25T16:19:10.491Z,0.50
2023-02-25T16:20:46.560Z,0.57
2023-02-25T16:22:15.666Z,1.52
2023-02-25T16:23:41.625Z,0.30
2023-02-25T16:25:06.165Z,1.45
2023-02-25T16:26:44.904Z,1.20
2023-02-25T16:28:16.395Z,0.80
2023-02-25T16:29:50.246Z,0.13
2023-02-25T16:31:18.671Z,1.25
2023-02-25T16:32:49.468Z,0.55
2023-02-25T16:34:17.072Z,0.88
2023-02-25T16:35:47.569Z,2.13
2023-02-25T16:37:14.585Z,0.00
2023-02-25T16:38:43.366Z,0.80
2023-02-25T16:40:10.039Z,0.43
2023-02-25T16:41:38.490Z,0.25
2023-02-25T16:43:02.470Z,0.15
2023-02-25T16:44:30.085Z,0.85
2023-02-25T16:45:57.759Z,0.20
2023-02-25T16:47:24.681Z,0.50
2023-02-25T16:48:50.902Z,1.67
2023-02-25T16:50:16.794Z,3.20
2023-02-25T16:51:43.452Z,0.60
2023-02-25T16:53:06.821Z,0.68
2023-02-25T16:54:32.987Z,1.35
2023-02-25T16:56:00.174Z,0.50
2023-02-25T16:57:24.721Z,0.40
2023-02-25T16:59:01.249Z,0.20
2023-02-25T17:00:25.272Z,1.17
2023-02-25T17:01:55.871Z,0.95
2023-02-25T17:03:19.720Z,0.15
2023-02-25T17:04:47.219Z,1.40
2023-02-25T17:06:17.524Z,0.80
2023-02-25T17:07:43.082Z,0.52
2023-02-25T17:09:06.471Z,0.43
2023-02-25T17:10:33.456Z,1.95
2023-02-25T17:11:57.693Z,1.23
2023-02-25T17:13:26.574Z,0.88
2023-02-25T17:14:51.618Z,2.65
2023-02-25T17:16:21.381Z,0.82
2023-02-25T17:17:45.925Z,0.93
2023-02-25T17:19:10.733Z,0.85
2023-02-25T17:20:33.569Z,0.65
2023-02-25T17:21:58.819Z,0.63
2023-02-25T17:23:24.477Z,1.25
2023-02-25T17:24:49.532Z,0.95
2023-02-25T17:26:13.951Z,4.68
2023-02-25T17:27:37.358Z,0.98
2023-02-25T17:29:02.040Z,2.03
2023-02-25T17:30:42.623Z,4.85
2023-02-25T17:32:19.540Z,2.60
2023-02-25T17:33:49.200Z,0.43
2023-02-25T17:35:16.089Z,1.10
2023-02-25T17:36:40.591Z,0.77
2023-02-25T17:38:04.122Z,0.20
2023-02-25T17:39:29.737Z,0.20
2023-02-25T17:40:55.175Z,1.50
2023-02-25T17:42:35.494Z,4.50
2023-02-25T17:43:58.963Z,3.75
2023-02-25T17:45:44.271Z,0.08
2023-02-25T17:47:09.930Z,0.40
2023-02-25T17:48:35.140Z,0.32
2023-02-25T17:50:22.173Z,2.58
2023-02-25T17:51:45.758Z,0.40
2023-02-25T17:53:15.812Z,0.70
2023-02-25T17:54:46.988Z,0.28
2023-02-25T17:56:14.705Z,0.73
2023-02-25T17:57:44.506Z,1.65
2023-02-25T17:59:25.090Z,2.33
2023-02-25T18:01:04.117Z,1.17
2023-02-25T18:02:36.573Z,1.83
2023-02-25T18:04:00.878Z,4.28
2023-02-25T18:05:28.069Z,1.05
2023-02-25T18:06:52.249Z,0.40
2023-02-25T18:08:20.161Z,1.63
2023-02-25T18:09:45.242Z,3.65
2023-02-25T18:11:24.440Z,1.45
2023-02-25T18:12:50.191Z,0.93
2023-02-25T18:14:26.140Z,4.05
2023-02-25T18:15:58.726Z,1.00
2023-02-25T18:17:26.848Z,1.92
2023-02-25T18:18:50.695Z,2.97
2023-02-25T18:20:29.669Z,2.58
2023-02-25T18:21:52.733Z,1.35
2023-02-25T18:23:20.982Z,1.67
2023-02-25T18:24:54.389Z,2.95
2023-02-25T18:26:19.209Z,3.47
2023-02-25T18:27:44.428Z,1.15
2023-02-25T18:29:10.512Z,2.53
2023-02-25T18:30:34.693Z,1.35
2023-02-25T18:31:57.176Z,1.20
2023-02-25T18:33:20.905Z,2.85
2023-02-25T18:34:44.258Z,5.13
2023-02-25T18:36:09.190Z,4.22
2023-02-25T18:37:34.541Z,1.27
2023-02-25T18:39:01.891Z,2.92
2023-02-25T18:40:29.528Z,2.63
2023-02-25T18:41:52.984Z,0.98
2023-02-25T18:43:17.930Z,1.98
2023-02-25T18:44:41.299Z,3.60
2023-02-25T18:46:04.839Z,2.00
2023-02-25T18:47:29.931Z,2.40
2023-02-25T18:48:53.322Z,1.23
2023-02-25T18:50:17.339Z,1.33
2023-02-25T18:51:40.712Z,2.92
2023-02-25T18:53:04.904Z,1.48
2023-02-25T18:54:28.251Z,1.00
2023-02-25T18:55:53.670Z,1.50
2023-02-25T18:57:26.236Z,1.13
2023-02-25T18:58:49.788Z,2.80
2023-02-25T19:00:14.183Z,0.40
2023-02-25T19:01:37.667Z,1.70
2023-02-25T19:03:02.864Z,1.92
2023-02-25T19:04:28.678Z,3.25
2023-02-25T19:05:52.817Z,2.47
2023-02-25T19:07:16.204Z,1.35
2023-02-25T19:08:39.592Z,2.60
2023-02-25T19:10:03.890Z,3.83
2023-02-25T19:11:31.530Z,1.23
2023-02-25T19:12:59.921Z,2.33
2023-02-25T19:14:23.333Z,2.08
2023-02-25T19:15:47.986Z,1.05
2023-02-25T19:17:15.780Z,4.22
2023-02-25T19:18:41.359Z,0.98
2023-02-25T19:20:05.467Z,1.17
2023-02-25T19:21:30.115Z,2.13
2023-02-25T19:22:55.005Z,2.97
2023-02-25T19:24:18.423Z,2.38
2023-02-25T19:25:43.069Z,1.88
2023-02-25T19:27:08.034Z,1.27
2023-02-25T19:28:31.392Z,1.90
2023-02-25T19:29:56.954Z,1.58
2023-02-25T19:31:23.161Z,3.72
2023-02-25T19:32:45.706Z,2.83
2023-02-25T19:34:09.326Z,2.42
2023-02-25T19:35:34.970Z,3.30
2023-02-25T19:36:59.248Z,0.57
2023-02-25T19:38:22.631Z,1.92
2023-02-25T19:39:46.247Z,3.22
2023-02-25T19:41:13.124Z,3.15
2023-02-25T19:42:37.864Z,0.47